Terminal Aerodrome Forecast
Issued by NWS

Home | Current Version | Previous Version | Text Only | Print | Product List | Glossary On
Versions: 1 2 3 4 5 6 7 8 9 10 11 12 13 14 15 16 17 18 19 20 21 22 23 24 25 26
000
FTUS43 KDLH 011500 AAA
TAFHIB
TAF AMD
KHIB 011534Z 0116/0212 14014G21KT P6SM SCT120
     FM011800 16016G25KT P6SM BKN150
     FM012100 19015G23KT P6SM BKN150
     FM020200 27008KT P6SM BKN100
      AMD NOT SKED=

USA.gov is the U.S. government's official web portal to all federal, state and local government web resources and services.